Time;durP1;ratioP1;P1;durP2;ratioP2;P2;SDS_P1;SDS_P2;PMS_P1;PMS_P2;Temp;Humidity;BMP_temperature;BMP_pressure;BME280_temperature;BME280_humidity;BME280_pressure;Samples;Min_cycle;Max_cycle;Signal;HPM_P1;HPM_P2
2022/11/07 05:32:25;;;;;;;11.50;2.20;;;13.90;86.40;;;;;;5204878;23;20145;-85
2022/11/07 05:34:51;;;;;;;15.10;1.90;;;13.90;86.40;;;;;;4998264;28;20042;-91
2022/11/07 05:37:17;;;;;;;19.42;2.75;;;14.00;86.50;;;;;;4979666;28;20034;-89
2022/11/07 05:39:42;;;;;;;13.15;2.65;;;14.00;86.40;;;;;;4997112;28;20018;-88
2022/11/07 05:42:08;;;;;;;7.25;1.48;;;14.10;86.40;;;;;;4996874;28;20038;-88
2022/11/07 05:44:33;;;;;;;12.02;2.08;;;14.10;86.50;;;;;;4981180;28;20026;-86
2022/11/07 05:47:00;;;;;;;12.52;2.30;;;14.10;86.50;;;;;;4995840;28;20432;-84
2022/11/07 05:49:26;;;;;;;8.35;2.42;;;14.00;86.40;;;;;;4978624;28;20038;-86
2022/11/07 05:51:52;;;;;;;12.05;2.05;;;14.00;86.40;;;;;;4996706;28;20107;-90
2022/11/07 05:54:18;;;;;;;16.05;2.35;;;14.00;86.50;;;;;;4979242;28;20117;-82
2022/11/07 05:56:43;;;;;;;9.05;1.55;;;14.10;86.60;;;;;;4996926;28;20041;-84
2022/11/07 05:59:10;;;;;;;11.23;2.00;;;14.10;86.50;;;;;;4996359;28;20023;-88
2022/11/07 06:01:36;;;;;;;9.45;1.73;;;14.10;86.40;;;;;;4979662;28;20066;-85
2022/11/07 06:04:05;;;;;;;13.57;2.38;;;14.10;86.50;;;;;;4994975;28;20027;-92
2022/11/07 06:06:31;;;;;;;13.73;2.20;;;14.10;86.40;;;;;;4979117;28;20022;-86
2022/11/07 06:08:57;;;;;;;12.13;1.63;;;14.10;86.30;;;;;;4991317;28;20521;-87
2022/11/07 06:11:22;;;;;;;10.40;1.70;;;14.20;86.20;;;;;;4970097;28;20366;-89
2022/11/07 06:13:48;;;;;;;10.05;1.98;;;14.20;86.20;;;;;;4971749;28;20030;-87
2022/11/07 06:16:14;;;;;;;10.95;2.45;;;14.20;86.20;;;;;;4979331;28;20787;-87
2022/11/07 06:18:39;;;;;;;17.27;2.83;;;14.20;86.00;;;;;;4980560;28;20141;-92
2022/11/07 06:21:06;;;;;;;12.27;2.25;;;14.20;86.20;;;;;;4979000;28;20509;-85
2022/11/07 06:23:36;;;;;;;14.75;2.45;;;14.20;86.10;;;;;;4982121;28;20081;-84
2022/11/07 06:26:01;;;;;;;13.25;2.70;;;14.20;86.20;;;;;;4993660;28;20034;-86
2022/11/07 06:28:27;;;;;;;10.73;1.50;;;14.20;86.10;;;;;;4978619;28;20044;-87
2022/11/07 06:30:52;;;;;;;12.43;1.77;;;14.20;86.00;;;;;;4977843;28;20157;-84
2022/11/07 06:33:19;;;;;;;9.73;1.73;;;14.20;85.90;;;;;;4972536;28;20065;-86
2022/11/07 06:35:45;;;;;;;11.50;2.50;;;14.20;85.80;;;;;;4981397;28;20083;-88
2022/11/07 06:38:12;;;;;;;11.95;1.73;;;14.20;85.90;;;;;;4978394;28;20524;-87
2022/11/07 06:40:41;;;;;;;9.98;1.67;;;14.20;85.80;;;;;;4979991;28;20122;-89
2022/11/07 06:43:14;;;;;;;16.87;2.47;;;14.30;85.70;;;;;;4980166;28;20027;-88
2022/11/07 06:45:41;;;;;;;10.27;2.30;;;14.20;85.70;;;;;;4991186;28;20031;-89
2022/11/07 06:48:07;;;;;;;6.40;1.98;;;14.20;85.70;;;;;;4961074;28;20062;-90
2022/11/07 06:50:33;;;;;;;6.88;1.83;;;14.20;85.50;;;;;;4980510;28;20066;-89
2022/11/07 06:53:05;;;;;;;8.80;1.88;;;14.20;85.60;;;;;;4981043;28;20074;-87
2022/11/07 06:55:33;;;;;;;11.88;2.03;;;14.20;85.50;;;;;;4963191;28;20050;-84
2022/11/07 06:57:59;;;;;;;13.23;2.08;;;14.20;85.40;;;;;;4963025;28;20026;-86
2022/11/07 07:00:29;;;;;;;11.90;1.75;;;14.30;85.30;;;;;;4963975;28;20023;-85
2022/11/07 07:02:55;;;;;;;12.15;2.28;;;14.30;85.10;;;;;;4981327;28;20031;-92
2022/11/07 07:05:20;;;;;;;6.35;2.17;;;14.30;85.10;;;;;;4967315;28;20469;-92
2022/11/07 07:07:46;;;;;;;12.07;2.03;;;14.30;84.90;;;;;;4964144;28;20031;-90
2022/11/07 07:10:12;;;;;;;8.38;1.90;;;14.30;84.90;;;;;;4984486;28;20030;-92
2022/11/07 07:12:38;;;;;;;15.52;1.95;;;14.20;84.90;;;;;;4983822;28;20088;-91
2022/11/07 07:15:04;;;;;;;7.93;1.67;;;14.20;84.80;;;;;;4985535;28;20023;-89
2022/11/07 07:17:30;;;;;;;9.15;1.27;;;14.30;84.80;;;;;;4983115;28;20030;-91
2022/11/07 07:19:55;;;;;;;7.00;1.35;;;14.20;84.80;;;;;;4982935;28;20723;-89
2022/11/07 07:22:21;;;;;;;3.42;1.08;;;14.30;84.70;;;;;;5001364;28;20037;-90
2022/11/07 07:24:50;;;;;;;11.57;2.05;;;14.30;84.60;;;;;;4983632;28;20390;-90
2022/11/07 07:27:16;;;;;;;8.95;1.83;;;14.30;84.50;;;;;;4983744;28;20065;-91
2022/11/07 07:29:41;;;;;;;9.32;1.77;;;14.30;84.50;;;;;;4983295;28;20034;-92
2022/11/07 07:32:07;;;;;;;8.93;2.25;;;14.30;84.40;;;;;;4983687;28;20406;-90
2022/11/07 07:34:33;;;;;;;7.38;1.63;;;14.30;84.50;;;;;;4983379;28;20098;-92
2022/11/07 07:36:58;;;;;;;7.82;1.95;;;14.30;84.50;;;;;;4983605;28;20038;-90
2022/11/07 07:39:26;;;;;;;13.75;1.90;;;14.30;84.50;;;;;;4983342;28;20035;-90
2022/11/07 07:41:51;;;;;;;12.25;1.70;;;14.30;84.20;;;;;;4984032;28;20065;-92
2022/11/07 07:44:17;;;;;;;8.05;2.03;;;14.30;84.30;;;;;;4983548;28;20026;-91
2022/11/07 07:46:43;;;;;;;5.95;1.48;;;14.30;84.20;;;;;;4983715;28;20035;-91
2022/11/07 07:49:08;;;;;;;6.43;1.45;;;14.40;84.20;;;;;;4983440;28;20030;-91
2022/11/07 07:51:34;;;;;;;3.75;1.45;;;14.40;84.20;;;;;;4983335;28;20497;-90
2022/11/07 07:54:00;;;;;;;10.63;1.58;;;14.40;84.10;;;;;;4964808;28;20031;-91
2022/11/07 07:56:26;;;;;;;6.85;1.13;;;14.40;83.90;;;;;;4975909;28;20033;-92
2022/11/07 07:58:52;;;;;;;3.60;1.20;;;14.50;83.90;;;;;;4983261;28;20080;-92
2022/11/07 08:01:18;;;;;;;5.80;1.27;;;14.50;83.60;;;;;;4983214;28;20030;-91
2022/11/07 08:03:44;;;;;;;5.82;1.25;;;14.50;83.60;;;;;;4982699;28;20497;-89
2022/11/07 08:06:10;;;;;;;5.60;1.35;;;14.50;83.60;;;;;;4983575;28;20409;-93
2022/11/07 08:08:35;;;;;;;7.55;1.80;;;14.50;83.60;;;;;;4981972;28;20026;-91
2022/11/07 08:11:04;;;;;;;5.30;1.45;;;14.60;83.60;;;;;;4982891;28;20089;-92
2022/11/07 08:13:30;;;;;;;6.75;1.23;;;14.60;83.40;;;;;;4983111;28;20027;-91
2022/11/07 08:15:56;;;;;;;8.00;1.38;;;14.70;83.30;;;;;;4986828;28;20545;-89
2022/11/07 08:18:23;;;;;;;5.47;1.45;;;14.70;83.20;;;;;;4963733;28;20377;-89
2022/11/07 08:20:50;;;;;;;4.30;1.15;;;14.70;83.10;;;;;;4962937;28;20103;-91
2022/11/07 08:23:16;;;;;;;7.97;1.70;;;14.70;83.10;;;;;;4963091;28;20030;-90
2022/11/07 08:25:52;;;;;;;8.15;1.38;;;14.70;83.10;;;;;;4976077;28;20399;-90
2022/11/07 08:28:24;;;;;;;11.52;1.77;;;14.70;83.00;;;;;;4982759;28;20117;-89
2022/11/07 08:31:08;;;;;;;4.18;1.40;;;14.70;83.00;;;;;;4977766;28;20501;-90
2022/11/07 08:33:34;;;;;;;5.28;1.50;;;14.80;82.90;;;;;;4982200;28;20039;-90
2022/11/07 08:36:01;;;;;;;12.57;1.70;;;14.80;82.90;;;;;;4999617;28;20027;-90
2022/11/07 08:38:29;;;;;;;8.48;1.80;;;14.80;82.80;;;;;;4981533;28;20057;-91
2022/11/07 08:40:55;;;;;;;9.18;2.13;;;14.90;82.70;;;;;;4982774;28;20030;-91
2022/11/07 08:43:21;;;;;;;8.65;1.42;;;14.90;82.70;;;;;;4999268;28;20019;-92
2022/11/07 08:45:48;;;;;;;11.85;1.48;;;15.00;82.60;;;;;;4982096;28;20496;-91
2022/11/07 08:48:15;;;;;;;8.35;1.33;;;15.00;82.40;;;;;;4982589;28;20026;-90
2022/11/07 08:50:41;;;;;;;6.07;1.45;;;15.00;82.30;;;;;;4981930;28;20026;-93
2022/11/07 08:53:07;;;;;;;8.95;1.35;;;15.10;82.30;;;;;;4982660;28;20115;-92
2022/11/07 08:55:33;;;;;;;3.45;1.27;;;15.20;82.30;;;;;;4982204;28;20053;-90
2022/11/07 08:58:02;;;;;;;7.88;1.33;;;15.30;82.00;;;;;;4982087;28;20125;-92
2022/11/07 09:00:29;;;;;;;8.93;1.60;;;15.30;81.80;;;;;;4982080;28;20052;-92
2022/11/07 09:02:55;;;;;;;9.60;1.50;;;15.40;81.80;;;;;;4981797;28;20054;-90
2022/11/07 09:05:20;;;;;;;7.28;1.38;;;15.50;81.60;;;;;;4982193;28;20038;-92
2022/11/07 09:07:46;;;;;;;12.65;1.55;;;15.60;81.50;;;;;;4981865;28;20035;-91
2022/11/07 09:10:11;;;;;;;8.25;1.52;;;15.60;81.40;;;;;;4982275;28;20441;-90
2022/11/07 09:12:45;;;;;;;12.77;2.08;;;15.60;81.30;;;;;;4999302;28;20501;-92
2022/11/07 09:15:11;;;;;;;7.68;1.70;;;15.60;81.50;;;;;;4999640;28;20117;-92
2022/11/07 09:17:37;;;;;;;8.38;1.85;;;15.70;81.50;;;;;;4982263;28;20061;-91
2022/11/07 09:20:03;;;;;;;10.75;2.33;;;15.70;81.50;;;;;;4980661;28;20057;-91
2022/11/07 09:22:29;;;;;;;6.68;1.70;;;15.80;81.40;;;;;;4981586;28;20023;-91
2022/11/07 09:24:54;;;;;;;11.35;1.95;;;15.80;81.50;;;;;;4981853;28;20058;-92
2022/11/07 09:27:20;;;;;;;12.63;2.03;;;16.00;81.50;;;;;;4981327;28;20030;-91
2022/11/07 09:29:45;;;;;;;11.23;2.30;;;16.00;81.00;;;;;;4981509;28;20041;-91
2022/11/07 09:32:11;;;;;;;15.30;2.08;;;16.10;80.80;;;;;;4998732;28;20046;-92
2022/11/07 09:34:38;;;;;;;11.00;1.70;;;16.10;81.00;;;;;;4981350;28;20046;-93
2022/11/07 09:37:04;;;;;;;12.85;1.92;;;16.20;80.90;;;;;;4981283;28;20113;-91
2022/11/07 09:39:29;;;;;;;6.80;1.50;;;16.20;80.60;;;;;;4980767;28;20054;-92
2022/11/07 09:42:14;;;;;;;6.88;1.88;;;16.20;80.70;;;;;;4981201;28;20041;-91
2022/11/07 09:44:55;;;;;;;11.52;2.08;;;16.30;80.70;;;;;;4981299;28;20049;-90
2022/11/07 09:47:43;;;;;;;18.77;2.13;;;16.40;80.50;;;;;;4981371;28;20034;-90
2022/11/07 09:50:24;;;;;;;9.45;2.10;;;16.30;80.60;;;;;;4980529;28;20034;-91
2022/11/07 09:53:02;;;;;;;11.27;1.88;;;16.40;80.70;;;;;;4981490;28;20030;-91
2022/11/07 09:55:41;;;;;;;18.60;2.28;;;16.40;80.50;;;;;;4981514;28;20033;-91
2022/11/07 09:58:32;;;;;;;9.30;1.92;;;16.50;80.50;;;;;;4981263;28;20034;-91
2022/11/07 10:01:09;;;;;;;9.02;2.20;;;16.50;80.30;;;;;;4998441;28;20026;-92
2022/11/07 10:03:37;;;;;;;7.22;1.50;;;16.50;80.40;;;;;;4981417;28;20556;-91
2022/11/07 10:06:21;;;;;;;5.30;1.77;;;16.60;80.20;;;;;;4981049;28;20026;-91
2022/11/07 10:08:47;;;;;;;12.45;2.30;;;16.70;80.10;;;;;;4980705;28;21089;-92
2022/11/07 10:11:25;;;;;;;10.68;2.25;;;16.80;79.40;;;;;;4981347;28;20038;-91
2022/11/07 10:14:24;;;;;;;10.02;2.40;;;16.90;79.30;;;;;;4980760;28;20030;-91
2022/11/07 10:17:21;;;;;;;9.77;2.03;;;17.00;79.20;;;;;;4977696;28;20035;-92
2022/11/07 10:20:18;;;;;;;9.85;2.22;;;17.10;78.70;;;;;;4961775;28;20022;-93
2022/11/07 10:23:30;;;;;;;11.23;2.80;;;17.00;78.30;;;;;;4961504;28;20066;-91
2022/11/07 10:26:08;;;;;;;12.68;2.30;;;17.00;77.90;;;;;;4972439;28;20117;-92
2022/11/07 10:28:42;;;;;;;13.65;2.88;;;17.10;78.40;;;;;;4980682;28;20113;-93
2022/11/07 10:31:10;;;;;;;15.57;2.42;;;17.10;78.30;;;;;;4980295;28;20038;-91
2022/11/07 10:33:43;;;;;;;11.50;2.75;;;17.10;77.50;;;;;;4979608;28;20027;-91
2022/11/07 10:36:24;;;;;;;13.90;1.90;;;17.30;77.80;;;;;;4980737;28;20030;-92
2022/11/07 10:38:50;;;;;;;13.30;1.85;;;17.30;77.80;;;;;;4980624;28;20026;-92
2022/11/07 10:41:18;;;;;;;12.60;2.25;;;17.30;77.60;;;;;;4980722;28;20089;-93
2022/11/07 10:43:48;;;;;;;11.90;2.15;;;17.30;77.70;;;;;;4980336;28;20383;-90
2022/11/07 10:46:23;;;;;;;;;;;17.30;77.90;;;;;;4981005;28;20121;-90
2022/11/07 10:48:58;;;;;;;9.35;2.35;;;17.20;77.40;;;;;;4963917;28;19987;-89
2022/11/07 10:51:38;;;;;;;11.60;2.20;;;17.20;77.40;;;;;;4960696;28;20034;-91
2022/11/07 10:54:04;;;;;;;17.85;2.33;;;17.40;77.40;;;;;;4961596;28;20023;-90
2022/11/07 10:56:41;;;;;;;12.95;2.92;;;17.60;77.20;;;;;;4965808;28;20030;-93
2022/11/07 10:59:13;;;;;;;16.13;2.40;;;17.70;76.50;;;;;;4980550;28;20481;-92
2022/11/07 11:01:39;;;;;;;18.15;2.58;;;17.70;75.70;;;;;;4977551;28;20038;-91
2022/11/07 11:04:04;;;;;;;17.40;2.95;;;17.70;75.90;;;;;;4980289;28;20489;-92
2022/11/07 11:06:30;;;;;;;13.32;3.17;;;17.60;76.10;;;;;;4980215;28;20094;-89
2022/11/07 11:08:57;;;;;;;9.50;2.20;;;17.70;76.10;;;;;;4980441;28;20052;-91
2022/11/07 11:11:34;;;;;;;14.00;2.05;;;17.70;74.80;;;;;;4979767;28;20057;-92
2022/11/07 11:14:09;;;;;;;15.30;2.53;;;17.70;75.10;;;;;;4979926;28;20034;-90
2022/11/07 11:16:37;;;;;;;10.88;2.10;;;17.60;75.00;;;;;;4995060;28;20019;-91
2022/11/07 11:19:04;;;;;;;14.57;4.05;;;17.50;75.40;;;;;;4977457;28;20084;-91
2022/11/07 11:21:41;;;;;;;11.55;2.35;;;17.50;74.90;;;;;;4980348;28;20034;-92
2022/11/07 11:24:22;;;;;;;9.52;2.33;;;17.60;74.30;;;;;;4980540;28;20121;-92
2022/11/07 11:26:50;;;;;;;12.68;2.13;;;17.50;74.50;;;;;;4980335;28;20098;-92
2022/11/07 11:29:23;;;;;;;12.60;2.58;;;17.50;74.80;;;;;;4980759;28;20034;-91
2022/11/07 11:31:50;;;;;;;15.85;2.78;;;17.50;74.90;;;;;;4979511;28;20096;-91
2022/11/07 11:34:35;;;;;;;10.38;2.00;;;17.40;74.50;;;;;;4980528;28;20462;-92
2022/11/07 11:37:20;;;;;;;18.58;2.83;;;17.30;73.70;;;;;;4980131;28;20030;-92
2022/11/07 11:40:06;;;;;;;13.35;2.22;;;17.20;74.80;;;;;;4980459;28;20030;-91
2022/11/07 11:42:44;;;;;;;9.07;1.83;;;17.20;75.00;;;;;;4980318;28;20058;-91
2022/11/07 11:45:15;;;;;;;13.82;2.53;;;17.20;74.30;;;;;;4983569;28;20508;-92
2022/11/07 11:48:04;;;;;;;12.30;3.05;;;17.30;74.20;;;;;;4983319;28;20457;-92
2022/11/07 11:50:56;;;;;;;9.23;1.65;;;17.30;74.10;;;;;;4979003;28;20041;-89
2022/11/07 11:53:22;;;;;;;16.98;3.53;;;17.30;73.40;;;;;;4964877;28;20378;-91
2022/11/07 11:56:00;;;;;;;10.85;1.73;;;17.40;73.30;;;;;;4998068;28;20054;-93
2022/11/07 11:58:42;;;;;;;10.77;1.83;;;17.50;73.50;;;;;;4983993;28;20057;-92
2022/11/07 12:01:11;;;;;;;22.52;2.33;;;17.60;72.80;;;;;;5000943;28;20023;-92
2022/11/07 12:04:22;;;;;;;13.20;1.73;;;17.70;72.90;;;;;;4983242;28;20050;-91
2022/11/07 12:06:51;;;;;;;13.15;1.85;;;17.70;72.40;;;;;;4983306;28;20523;-90
2022/11/07 12:09:43;;;;;;;11.48;2.10;;;17.80;72.00;;;;;;4983461;28;20050;-90
2022/11/07 12:12:23;;;;;;;10.15;2.05;;;17.80;71.80;;;;;;4983535;28;20035;-92
2022/11/07 12:14:56;;;;;;;11.50;2.20;;;17.90;71.10;;;;;;4983173;28;20037;-92
2022/11/07 12:17:25;;;;;;;10.35;2.10;;;17.80;71.10;;;;;;4983618;28;20026;-91
2022/11/07 12:20:14;;;;;;;7.53;2.00;;;17.80;70.80;;;;;;4983214;28;20050;-91
2022/11/07 12:22:55;;;;;;;6.27;2.27;;;17.80;70.20;;;;;;4983203;28;20065;-91
2022/11/07 12:25:42;;;;;;;8.68;1.73;;;17.80;69.90;;;;;;4982927;28;20041;-93
2022/11/07 12:28:26;;;;;;;6.20;1.48;;;17.90;68.70;;;;;;4982544;28;20030;-91
2022/11/07 12:31:01;;;;;;;6.85;1.40;;;17.90;69.10;;;;;;4982418;28;20043;-92
2022/11/07 12:33:46;;;;;;;13.32;2.13;;;17.80;69.30;;;;;;4982877;28;20038;-90
2022/11/07 12:36:42;;;;;;;12.90;1.95;;;17.70;68.90;;;;;;4983083;28;20029;-91
2022/11/07 12:39:20;;;;;;;13.70;2.05;;;17.50;70.40;;;;;;4982702;28;20371;-91
2022/11/07 12:42:07;;;;;;;10.48;2.22;;;17.40;71.70;;;;;;4982708;28;20026;-91
2022/11/07 12:44:46;;;;;;;9.13;1.10;;;17.30;71.50;;;;;;4982144;28;20038;-91
2022/11/07 12:47:28;;;;;;;13.02;2.10;;;17.20;71.30;;;;;;4982924;28;20031;-91
2022/11/07 12:50:15;;;;;;;6.03;1.40;;;17.30;71.60;;;;;;4982329;28;20031;-88
2022/11/07 12:53:15;;;;;;;11.27;1.98;;;17.50;72.30;;;;;;4982626;28;20037;-92
2022/11/07 12:55:56;;;;;;;11.00;2.45;;;17.50;72.00;;;;;;4981951;28;20066;-92
2022/11/07 12:58:30;;;;;;;13.82;2.80;;;17.50;71.80;;;;;;4982406;28;20030;-91
2022/11/07 13:00:56;;;;;;;6.72;1.98;;;17.70;71.20;;;;;;4993201;28;20029;-91
2022/11/07 13:03:41;;;;;;;11.10;1.83;;;17.80;70.90;;;;;;4982101;28;20029;-92
2022/11/07 13:06:18;;;;;;;12.95;2.25;;;17.80;70.40;;;;;;4982071;28;20053;-91
2022/11/07 13:09:31;;;;;;;10.18;2.35;;;17.70;69.70;;;;;;4981961;28;20030;-91
2022/11/07 13:12:27;;;;;;;7.15;1.35;;;17.70;69.20;;;;;;4982237;28;20033;-90
2022/11/07 13:14:55;;;;;;;12.60;2.08;;;17.90;68.60;;;;;;4981681;28;20452;-91
2022/11/07 13:17:23;;;;;;;7.55;1.73;;;18.00;68.20;;;;;;4981791;28;20027;-91
2022/11/07 13:20:01;;;;;;;11.50;2.17;;;18.00;68.80;;;;;;4982019;28;20509;-91
2022/11/07 13:22:40;;;;;;;13.30;2.15;;;18.00;68.50;;;;;;4981877;28;20030;-91
2022/11/07 13:25:30;;;;;;;11.75;2.30;;;18.00;69.00;;;;;;4963508;28;20410;-93
2022/11/07 13:27:55;;;;;;;;;;;18.00;69.20;;;;;;4962599;28;20060;-91
2022/11/07 13:30:35;;;;;;;8.50;1.70;;;18.00;69.30;;;;;;4978579;28;19973;-89
2022/11/07 13:33:01;;;;;;;10.00;1.60;;;18.10;69.40;;;;;;4979968;28;20524;-91
2022/11/07 13:35:37;;;;;;;11.57;2.65;;;18.00;69.40;;;;;;4981095;28;20529;-91
2022/11/07 13:38:11;;;;;;;6.07;1.70;;;18.00;69.30;;;;;;4981882;28;20030;-90
2022/11/07 13:40:49;;;;;;;5.78;1.58;;;18.00;69.40;;;;;;4981560;28;20082;-92
2022/11/07 13:43:36;;;;;;;9.60;1.50;;;17.90;69.00;;;;;;4981626;28;20030;-92
2022/11/07 13:46:06;;;;;;;11.88;2.60;;;17.90;67.80;;;;;;4981665;28;20030;-92
2022/11/07 13:48:53;;;;;;;8.05;1.67;;;18.00;67.70;;;;;;4981544;28;20037;-91
2022/11/07 13:51:28;;;;;;;8.60;1.90;;;18.10;67.50;;;;;;4981171;28;20042;-93
2022/11/07 13:54:29;;;;;;;9.15;1.73;;;17.90;66.30;;;;;;4998706;28;20026;-91
2022/11/07 13:57:22;;;;;;;8.63;1.77;;;17.90;66.60;;;;;;4978019;28;20042;-91
2022/11/07 14:00:03;;;;;;;9.80;1.45;;;17.90;66.70;;;;;;4980711;28;20029;-91
2022/11/07 14:02:32;;;;;;;10.80;1.73;;;18.00;66.60;;;;;;4981628;28;20027;-92
2022/11/07 14:05:11;;;;;;;5.88;1.45;;;18.00;66.90;;;;;;4981018;28;20098;-91
2022/11/07 14:07:42;;;;;;;9.70;1.65;;;18.10;66.10;;;;;;4981058;28;20026;-93
2022/11/07 14:10:38;;;;;;;8.80;1.75;;;18.00;65.90;;;;;;4981074;28;20027;-92
2022/11/07 14:13:18;;;;;;;10.07;2.75;;;17.90;66.10;;;;;;4981405;28;20058;-92
2022/11/07 14:15:47;;;;;;;12.00;2.22;;;18.00;65.90;;;;;;4981291;28;20124;-91
2022/11/07 14:18:17;;;;;;;6.53;1.17;;;17.90;66.40;;;;;;4980658;28;20442;-91
2022/11/07 14:20:52;;;;;;;7.93;1.50;;;17.90;66.90;;;;;;4980847;28;20030;-91
2022/11/07 14:23:25;;;;;;;6.13;1.00;;;17.80;66.90;;;;;;4980945;28;20018;-90
2022/11/07 14:26:46;;;;;;;5.93;1.40;;;17.80;67.20;;;;;;4980261;28;20026;-90
2022/11/07 14:29:21;;;;;;;11.13;1.70;;;17.80;66.90;;;;;;4938336;28;20035;-91
2022/11/07 14:31:46;;;;;;;8.50;1.88;;;17.80;66.60;;;;;;4980932;28;20050;-91
2022/11/07 14:34:12;;;;;;;10.35;2.10;;;17.90;66.80;;;;;;4980927;28;20054;-90
2022/11/07 14:36:46;;;;;;;12.70;2.22;;;17.80;67.10;;;;;;4980902;28;20034;-90
2022/11/07 14:39:13;;;;;;;10.50;1.90;;;17.90;67.40;;;;;;4980559;28;20018;-91
2022/11/07 14:41:41;;;;;;;13.05;2.75;;;17.80;67.40;;;;;;4997723;28;20026;-91
2022/11/07 14:44:14;;;;;;;7.40;1.65;;;17.70;67.20;;;;;;4980722;28;20022;-91
2022/11/07 14:46:40;;;;;;;6.93;1.27;;;17.60;67.60;;;;;;4981030;28;20030;-90
2022/11/07 14:49:22;;;;;;;6.05;1.92;;;17.50;67.70;;;;;;4994761;28;21553;-91
2022/11/07 14:51:47;;;;;;;8.98;1.80;;;17.40;68.00;;;;;;4969896;28;20493;-91
2022/11/07 14:54:17;;;;;;;8.85;1.60;;;17.40;68.30;;;;;;4980618;28;20030;-91
2022/11/07 14:56:45;;;;;;;10.30;1.88;;;17.50;68.30;;;;;;4981084;28;20022;-93
2022/11/07 14:59:14;;;;;;;6.05;1.20;;;17.50;68.40;;;;;;4980812;28;20027;-91
2022/11/07 15:01:55;;;;;;;10.85;1.58;;;17.50;68.60;;;;;;4980504;28;20066;-90
2022/11/07 15:04:50;;;;;;;7.57;1.75;;;17.50;68.30;;;;;;4997430;28;20026;-92
2022/11/07 15:07:24;;;;;;;6.47;1.58;;;17.60;68.50;;;;;;4968017;28;20129;-91
2022/11/07 15:09:52;;;;;;;11.18;1.75;;;17.50;68.20;;;;;;4980753;28;20478;-92
2022/11/07 15:12:21;;;;;;;7.82;2.05;;;17.50;68.20;;;;;;4980940;28;20081;-93
2022/11/07 15:15:01;;;;;;;7.37;1.40;;;17.60;68.50;;;;;;4980680;28;20577;-91
2022/11/07 15:17:28;;;;;;;6.70;1.40;;;17.50;68.70;;;;;;4980351;28;20410;-92
2022/11/07 15:20:00;;;;;;;10.43;1.60;;;17.50;68.90;;;;;;4984032;28;20037;-90
2022/11/07 15:22:35;;;;;;;8.32;1.52;;;17.50;68.40;;;;;;4984202;28;20061;-92
2022/11/07 15:25:01;;;;;;;8.55;1.83;;;17.50;68.60;;;;;;4984261;28;20077;-92
2022/11/07 15:27:34;;;;;;;6.85;1.80;;;17.50;67.70;;;;;;4983936;28;20030;-92
2022/11/07 15:30:02;;;;;;;6.22;2.00;;;17.50;67.90;;;;;;4983876;28;20022;-92
2022/11/07 15:32:40;;;;;;;14.73;2.05;;;17.50;68.00;;;;;;4983907;28;20054;-91
2022/11/07 15:35:18;;;;;;;9.90;1.58;;;17.40;68.00;;;;;;4983694;28;20062;-91
2022/11/07 15:38:00;;;;;;;7.40;1.67;;;17.50;68.50;;;;;;4983551;28;20125;-92
2022/11/07 15:40:27;;;;;;;8.60;1.90;;;17.40;68.40;;;;;;4984049;28;20023;-90
2022/11/07 15:42:53;;;;;;;12.15;2.05;;;17.40;68.50;;;;;;4984010;28;20050;-93
2022/11/07 15:45:19;;;;;;;11.68;2.22;;;17.40;68.40;;;;;;4984128;28;20033;-92
2022/11/07 15:47:46;;;;;;;4.90;1.73;;;17.30;68.40;;;;;;4983316;28;20050;-91
2022/11/07 15:50:23;;;;;;;5.63;1.88;;;17.40;68.80;;;;;;4983997;28;20022;-93
2022/11/07 15:52:50;;;;;;;7.10;1.40;;;17.40;68.80;;;;;;4983850;28;20038;-93
2022/11/07 15:55:19;;;;;;;7.85;1.52;;;17.30;68.50;;;;;;4983863;28;20023;-92
2022/11/07 15:57:47;;;;;;;4.78;1.55;;;17.30;68.00;;;;;;4983955;28;20023;-91
2022/11/07 16:00:14;;;;;;;4.30;1.40;;;17.30;68.60;;;;;;4983462;28;20422;-91
2022/11/07 16:02:40;;;;;;;6.22;1.60;;;17.30;68.50;;;;;;4983633;28;20027;-90
2022/11/07 16:05:06;;;;;;;8.30;1.48;;;17.20;67.90;;;;;;4983266;28;20045;-91
2022/11/07 16:07:32;;;;;;;4.75;1.40;;;17.10;67.80;;;;;;4983331;28;20150;-90
2022/11/07 16:09:57;;;;;;;8.10;1.75;;;17.00;68.10;;;;;;4983603;28;20117;-91
2022/11/07 16:12:23;;;;;;;6.35;1.40;;;17.00;68.20;;;;;;4983321;28;20066;-92
2022/11/07 16:14:49;;;;;;;4.32;1.73;;;16.90;68.50;;;;;;4983283;28;20549;-90
2022/11/07 16:17:16;;;;;;;9.02;1.67;;;16.90;68.50;;;;;;4983348;28;20089;-93
2022/11/07 16:19:42;;;;;;;11.52;2.00;;;16.80;68.70;;;;;;4982657;28;20035;-92
2022/11/07 16:22:13;;;;;;;9.93;2.08;;;16.80;69.00;;;;;;4982914;28;20030;-90
2022/11/07 16:24:39;;;;;;;13.75;1.67;;;16.80;68.60;;;;;;4983106;28;20038;-92
2022/11/07 16:27:05;;;;;;;9.23;1.77;;;16.80;69.10;;;;;;4982730;28;20034;-91
2022/11/07 16:29:31;;;;;;;4.38;1.60;;;16.70;69.40;;;;;;4982498;28;20028;-92
2022/11/07 16:31:56;;;;;;;6.05;1.50;;;16.70;69.40;;;;;;4982400;28;20053;-92
2022/11/07 16:34:22;;;;;;;6.60;1.75;;;16.60;69.30;;;;;;4982513;28;20037;-92
2022/11/07 16:36:48;;;;;;;6.97;1.73;;;16.50;69.60;;;;;;4982542;28;20052;-90
2022/11/07 16:39:21;;;;;;;4.07;1.33;;;16.50;69.40;;;;;;4982823;28;20052;-91
2022/11/07 16:41:49;;;;;;;10.50;1.70;;;16.50;69.40;;;;;;4986102;28;20485;-92
2022/11/07 16:44:15;;;;;;;8.55;1.73;;;16.50;69.30;;;;;;4983001;28;20058;-90
2022/11/07 16:46:50;;;;;;;12.98;1.83;;;16.50;69.30;;;;;;4984103;28;20163;-90
2022/11/07 16:49:42;;;;;;;8.32;1.88;;;16.50;69.20;;;;;;4983675;28;20026;-91
2022/11/07 16:52:34;;;;;;;8.88;1.45;;;16.50;69.10;;;;;;4979163;28;20413;-91
2022/11/07 16:55:00;;;;;;;8.00;1.83;;;16.50;68.80;;;;;;4963138;28;20053;-91
2022/11/07 16:57:26;;;;;;;12.88;2.00;;;16.50;69.00;;;;;;4963478;28;20027;-91
2022/11/07 16:59:52;;;;;;;8.18;1.95;;;16.50;68.60;;;;;;4983385;28;20034;-91
2022/11/07 17:02:22;;;;;;;8.60;1.40;;;16.50;68.50;;;;;;4977597;28;20034;-88
2022/11/07 17:04:50;;;;;;;7.63;1.75;;;16.50;68.60;;;;;;4973328;28;20027;-83
2022/11/07 17:07:16;;;;;;;3.20;1.80;;;16.50;68.40;;;;;;4974215;28;20110;-80
2022/11/07 17:09:45;;;;;;;10.07;2.33;;;16.50;68.50;;;;;;4989237;28;20023;-79
2022/11/07 17:12:16;;;;;;;4.57;1.55;;;16.40;68.70;;;;;;4972938;28;20022;-81
2022/11/07 17:14:42;;;;;;;6.22;1.20;;;16.40;68.40;;;;;;4996275;28;20513;-80
2022/11/07 17:17:10;;;;;;;5.63;1.48;;;16.50;68.90;;;;;;4996796;28;20023;-80
2022/11/07 17:19:35;;;;;;;4.75;1.33;;;16.40;68.90;;;;;;4996562;28;20021;-81
2022/11/07 17:22:02;;;;;;;4.38;1.45;;;16.40;68.70;;;;;;4996231;28;20034;-80
2022/11/07 17:24:29;;;;;;;6.38;2.10;;;16.30;68.70;;;;;;4996472;28;20022;-78
2022/11/07 17:26:58;;;;;;;7.95;3.70;;;16.30;68.40;;;;;;4971054;28;20026;-76
2022/11/07 17:29:24;;;;;;;10.93;2.60;;;16.30;68.70;;;;;;4992958;28;20441;-77
2022/11/07 17:31:50;;;;;;;8.40;2.63;;;16.20;68.80;;;;;;4974329;28;20497;-76
2022/11/07 17:34:15;;;;;;;8.90;3.25;;;16.20;68.90;;;;;;4988907;28;20101;-81
2022/11/07 17:36:46;;;;;;;7.93;3.38;;;16.10;69.20;;;;;;4944063;28;21346;-84
2022/11/07 17:39:19;;;;;;;6.60;2.08;;;16.20;69.40;;;;;;4950233;28;20042;-81
2022/11/07 17:41:48;;;;;;;7.53;1.80;;;16.20;69.50;;;;;;4974541;28;20026;-84
2022/11/07 17:44:14;;;;;;;11.75;3.42;;;16.10;69.70;;;;;;4988007;28;20053;-85
2022/11/07 17:46:42;;;;;;;7.68;2.50;;;16.20;69.60;;;;;;4972929;28;20489;-85
2022/11/07 17:49:28;;;;;;;4.72;1.55;;;16.20;69.80;;;;;;4987123;28;20056;-82
2022/11/07 17:51:54;;;;;;;5.75;1.45;;;16.20;69.80;;;;;;4993838;28;20031;-82
2022/11/07 17:54:20;;;;;;;4.50;1.92;;;16.10;69.90;;;;;;4971540;28;20035;-83
2022/11/07 17:56:46;;;;;;;6.38;1.90;;;16.20;69.90;;;;;;4990760;28;20153;-84
2022/11/07 17:59:15;;;;;;;9.00;1.58;;;16.20;69.90;;;;;;4993738;28;20054;-84
2022/11/07 18:01:41;;;;;;;6.85;1.60;;;16.10;69.70;;;;;;4978322;28;20034;-84
2022/11/07 18:04:09;;;;;;;12.88;2.53;;;16.10;70.00;;;;;;4994850;28;20449;-83
2022/11/07 18:06:40;;;;;;;6.20;1.80;;;16.00;70.10;;;;;;4976354;28;20080;-83
2022/11/07 18:09:07;;;;;;;7.22;2.33;;;16.00;69.90;;;;;;4959981;28;20105;-84
2022/11/07 18:11:34;;;;;;;7.07;1.73;;;16.00;70.00;;;;;;4972055;28;20058;-84
2022/11/07 18:14:00;;;;;;;3.85;1.50;;;16.00;70.00;;;;;;4974484;28;20035;-84
2022/11/07 18:16:29;;;;;;;5.03;1.63;;;15.90;69.80;;;;;;4969382;28;20555;-85
2022/11/07 18:18:56;;;;;;;3.75;1.83;;;15.90;70.00;;;;;;4983416;28;20042;-83
2022/11/07 18:21:21;;;;;;;4.53;1.80;;;15.90;70.00;;;;;;4976214;28;20025;-84
2022/11/07 18:23:50;;;;;;;4.05;1.63;;;15.90;69.80;;;;;;4993820;28;20504;-83
2022/11/07 18:26:20;;;;;;;5.10;1.60;;;15.80;69.80;;;;;;4977870;28;20085;-83
2022/11/07 18:28:50;;;;;;;4.80;1.15;;;15.90;69.90;;;;;;4974005;28;20026;-81
2022/11/07 18:31:18;;;;;;;4.20;1.65;;;16.00;69.60;;;;;;4994362;28;20132;-82
2022/11/07 18:33:45;;;;;;;8.43;2.80;;;16.00;69.70;;;;;;4955355;28;20041;-84
2022/11/07 18:36:15;;;;;;;3.90;1.58;;;16.00;69.20;;;;;;4970999;28;20023;-84
2022/11/07 18:38:41;;;;;;;4.55;1.70;;;15.90;69.70;;;;;;4969209;28;20775;-84